createdAt,value
2018-11-04T00:03:53.009Z,33.97
2018-11-04T00:09:57.755Z,30.33
2018-11-04T00:16:02.604Z,36.13
2018-11-04T00:22:07.525Z,40.93
2018-11-04T00:28:12.650Z,38.67
2018-11-04T00:34:17.704Z,28.83
2018-11-04T00:40:22.470Z,31.47
2018-11-04T00:46:27.260Z,38.47
2018-11-04T00:52:31.984Z,35.50
2018-11-04T00:58:36.714Z,31.00
2018-11-04T01:04:42.180Z,67.23
2018-11-04T01:10:47.276Z,55.37
2018-11-04T01:16:52.076Z,47.93
2018-11-04T01:22:57.287Z,44.83
2018-11-04T01:29:02.002Z,41.87
2018-11-04T01:35:08.176Z,37.83
2018-11-04T01:41:12.829Z,46.67
2018-11-04T01:47:17.586Z,56.37
2018-11-04T01:53:22.401Z,56.33
2018-11-04T01:59:27.104Z,49.30
2018-11-04T02:05:31.808Z,50.37
2018-11-04T02:11:36.672Z,43.50
2018-11-04T02:17:41.914Z,54.03
2018-11-04T02:23:46.944Z,53.60
2018-11-04T02:29:51.723Z,70.40
2018-11-04T02:35:56.911Z,66.53
2018-11-04T02:42:01.556Z,60.37
2018-11-04T02:48:06.847Z,59.47
2018-11-04T02:54:11.556Z,54.90
2018-11-04T03:00:16.739Z,64.20
2018-11-04T03:06:21.733Z,69.40
2018-11-04T03:12:26.450Z,64.33
2018-11-04T03:18:31.142Z,60.17
2018-11-04T03:24:36.101Z,55.47
2018-11-04T03:30:41.197Z,73.57
2018-11-04T03:36:45.930Z,61.40
2018-11-04T03:42:51.145Z,59.50
2018-11-04T03:48:55.855Z,68.30
2018-11-04T03:55:00.580Z,68.10
2018-11-04T04:01:05.518Z,69.70
2018-11-04T04:07:10.509Z,70.07
2018-11-04T04:13:15.187Z,65.83
2018-11-04T04:19:20.576Z,68.37
2018-11-04T04:25:25.250Z,78.50
2018-11-04T04:31:29.939Z,69.00
2018-11-04T04:37:34.975Z,67.43
2018-11-04T04:43:39.690Z,74.60
2018-11-04T04:49:44.388Z,69.73
2018-11-04T04:55:49.295Z,79.20
2018-11-04T05:01:54.086Z,67.90
2018-11-04T05:07:58.980Z,74.60
2018-11-04T05:14:03.645Z,71.20
2018-11-04T05:20:08.509Z,74.43
2018-11-04T05:26:13.146Z,74.17
2018-11-04T05:32:18.210Z,68.30
2018-11-04T05:38:23.049Z,74.07
2018-11-04T05:44:27.820Z,66.37
2018-11-04T05:50:32.544Z,69.07
2018-11-04T05:56:37.259Z,65.53
2018-11-04T06:02:41.919Z,70.60
2018-11-04T06:08:46.630Z,77.50
2018-11-04T06:14:51.339Z,66.53
2018-11-04T06:20:56.351Z,73.53
2018-11-04T06:27:01.088Z,64.57
2018-11-04T06:33:06.120Z,82.67
2018-11-04T06:39:11.118Z,106.77
2018-11-04T06:45:15.851Z,76.10
2018-11-04T06:51:20.570Z,69.03
2018-11-04T06:57:25.215Z,50.10
2018-11-04T07:03:30.166Z,48.30
2018-11-04T07:09:34.811Z,42.13
2018-11-04T07:15:39.502Z,47.97
2018-11-04T07:21:44.933Z,41.30
2018-11-04T07:27:50.266Z,43.57
2018-11-04T07:33:54.996Z,42.97
2018-11-04T07:39:59.957Z,40.37
2018-11-04T07:46:04.721Z,46.67
2018-11-04T07:52:09.441Z,41.40
2018-11-04T07:58:14.941Z,41.40
2018-11-04T08:04:19.755Z,38.67
2018-11-04T08:10:24.453Z,40.60
2018-11-04T08:16:29.154Z,36.60
2018-11-04T08:22:34.085Z,36.70
2018-11-04T08:28:39.055Z,35.73
2018-11-04T08:34:44.013Z,108.80
2018-11-04T08:40:49.011Z,41.50
2018-11-04T08:46:54.109Z,80.10
2018-11-04T08:52:58.865Z,36.60
2018-11-04T08:59:04.074Z,39.50
2018-11-04T09:05:09.028Z,31.73
2018-11-04T09:11:13.671Z,32.77
2018-11-04T09:17:18.613Z,32.40
2018-11-04T09:23:23.719Z,33.37
2018-11-04T09:29:29.056Z,31.93
2018-11-04T09:35:33.963Z,33.57
2018-11-04T09:41:38.633Z,29.47
2018-11-04T09:47:43.360Z,28.20
2018-11-04T09:53:48.224Z,28.20
2018-11-04T09:59:53.015Z,22.70
2018-11-04T10:05:58.219Z,19.50
2018-11-04T10:12:04.211Z,21.40
2018-11-04T10:18:08.876Z,20.10
2018-11-04T10:24:14.309Z,20.00
2018-11-04T10:30:19.967Z,19.17
2018-11-04T10:36:24.710Z,17.87
2018-11-04T10:42:30.285Z,22.10
2018-11-04T10:48:34.989Z,19.30
2018-11-04T10:54:39.742Z,18.00
2018-11-04T11:00:49.724Z,17.50
2018-11-04T11:06:54.458Z,11.40
2018-11-04T11:12:59.165Z,13.37
2018-11-04T11:19:03.848Z,14.20
2018-11-04T11:25:10.464Z,14.23
2018-11-04T11:31:15.570Z,11.97
2018-11-04T11:37:20.244Z,17.23
2018-11-04T11:43:25.208Z,14.50
2018-11-04T11:49:30.171Z,17.47
2018-11-04T11:55:35.080Z,15.20
2018-11-04T12:01:39.755Z,17.97
2018-11-04T12:07:44.680Z,15.00
2018-11-04T12:13:49.401Z,14.50
2018-11-04T12:19:54.838Z,14.63
2018-11-04T12:25:59.518Z,18.00
2018-11-04T12:32:04.263Z,17.20
2018-11-04T12:38:09.113Z,20.90
2018-11-04T12:44:13.755Z,20.33
2018-11-04T12:50:18.447Z,20.03
2018-11-04T12:56:23.113Z,25.87
2018-11-04T13:02:27.779Z,22.60
2018-11-04T13:08:32.468Z,21.17
2018-11-04T13:14:37.178Z,19.87
2018-11-04T13:20:41.889Z,22.77
2018-11-04T13:26:46.571Z,21.93
2018-11-04T13:32:51.357Z,21.23
2018-11-04T13:38:56.019Z,16.57
2018-11-04T13:45:00.869Z,14.07
2018-11-04T13:51:05.827Z,19.07
2018-11-04T13:57:11.286Z,17.37
2018-11-04T14:03:15.987Z,18.87
2018-11-04T14:09:20.669Z,15.53
2018-11-04T14:15:25.412Z,15.77
2018-11-04T14:21:30.061Z,21.30
2018-11-04T14:27:35.046Z,18.67
2018-11-04T14:33:40.104Z,16.20
2018-11-04T14:39:45.243Z,19.50
2018-11-04T14:45:50.074Z,16.67
2018-11-04T14:51:54.769Z,14.63
2018-11-04T14:57:59.448Z,13.50
2018-11-04T15:04:04.291Z,14.50
2018-11-04T15:10:11.892Z,12.70
2018-11-04T15:16:17.137Z,10.10
2018-11-04T15:22:21.790Z,11.33
2018-11-04T15:28:27.029Z,10.70
2018-11-04T15:34:31.879Z,10.50
2018-11-04T15:40:37.185Z,18.83
2018-11-04T15:46:41.837Z,10.00
2018-11-04T15:52:47.230Z,11.53
2018-11-04T15:58:51.898Z,13.40
2018-11-04T16:04:56.862Z,17.80
2018-11-04T16:11:01.543Z,19.63
2018-11-04T16:17:06.285Z,20.73
2018-11-04T16:23:11.100Z,23.33
2018-11-04T16:29:16.178Z,22.60
2018-11-04T16:35:20.938Z,27.93
2018-11-04T16:41:25.733Z,29.37
2018-11-04T16:47:30.520Z,25.30
2018-11-04T16:53:35.957Z,22.40
2018-11-04T16:59:41.188Z,26.73
2018-11-04T17:05:46.076Z,24.70
2018-11-04T17:11:50.675Z,26.33
2018-11-04T17:17:56.057Z,24.00
2018-11-04T17:24:01.223Z,32.53
2018-11-04T17:30:09.412Z,29.67
2018-11-04T17:36:14.119Z,26.37
2018-11-04T17:42:18.856Z,26.27
2018-11-04T17:48:23.584Z,22.80
2018-11-04T17:54:28.536Z,27.07
2018-11-04T18:00:33.272Z,22.53
2018-11-04T18:06:38.062Z,25.00
2018-11-04T18:12:42.976Z,30.07
2018-11-04T18:18:47.747Z,26.10
2018-11-04T18:24:52.765Z,25.63
2018-11-04T18:30:57.585Z,24.63
2018-11-04T18:37:02.323Z,29.87
2018-11-04T18:43:07.318Z,30.60
2018-11-04T18:49:12.004Z,33.97
2018-11-04T18:55:17.231Z,47.33
2018-11-04T19:01:21.974Z,37.77
2018-11-04T19:07:27.473Z,29.67
2018-11-04T19:13:32.188Z,32.67
2018-11-04T19:19:37.201Z,35.83
2018-11-04T19:25:41.973Z,36.63
2018-11-04T19:31:47.167Z,32.53
2018-11-04T19:37:51.911Z,36.40
2018-11-04T19:43:56.763Z,33.70
2018-11-04T19:50:01.768Z,39.87
2018-11-04T19:56:08.351Z,39.37
2018-11-04T20:02:13.422Z,40.30
2018-11-04T20:08:18.440Z,30.93
2018-11-04T20:14:24.165Z,33.03
2018-11-04T20:20:28.907Z,35.10
2018-11-04T20:26:33.575Z,36.30
2018-11-04T20:32:43.778Z,32.43
2018-11-04T20:38:54.084Z,32.77
2018-11-04T20:44:59.236Z,31.27
2018-11-04T20:51:05.599Z,28.20
2018-11-04T20:57:15.507Z,31.53
2018-11-04T21:03:20.137Z,33.63
2018-11-04T21:09:25.184Z,36.50
2018-11-04T21:15:30.529Z,29.90
2018-11-04T21:21:35.318Z,31.87
2018-11-04T21:27:40.445Z,35.33
2018-11-04T21:33:45.208Z,40.43
2018-11-04T21:39:49.937Z,33.40
2018-11-04T21:45:55.433Z,32.23
2018-11-04T21:52:00.516Z,28.47
2018-11-04T21:58:09.314Z,27.73
2018-11-04T22:04:14.124Z,35.77
2018-11-04T22:10:18.756Z,40.70
2018-11-04T22:16:24.605Z,31.47
2018-11-04T22:22:29.289Z,32.53
2018-11-04T22:28:34.341Z,31.30
2018-11-04T22:34:39.565Z,30.37
2018-11-04T22:40:44.351Z,27.80
2018-11-04T22:46:49.107Z,31.37
2018-11-04T22:52:54.348Z,29.60
2018-11-04T22:58:59.102Z,30.87
2018-11-04T23:05:09.256Z,27.47
2018-11-04T23:11:13.973Z,26.43
2018-11-04T23:17:18.693Z,30.30
2018-11-04T23:23:23.371Z,31.70
2018-11-04T23:29:28.383Z,28.33
2018-11-04T23:35:33.496Z,28.70
2018-11-04T23:41:38.406Z,33.27
2018-11-04T23:47:43.876Z,32.87
2018-11-04T23:53:48.592Z,34.70
2018-11-04T23:59:53.310Z,31.40
